Time,TemperatureF,DewpointF,PressureIn,WindDirection,WindDirectionDegrees,WindSpeedMPH,WindSpeedGustMPH,Humidity,HourlyPrecipIn,Conditions,Clouds,dailyrainin,SoftwareType,DateUTC
2013-03-07 00:00:00,35.6,29.7,30.09,NNE,32,2.0,5.0,79,0.00,,,0.12,WeatherCatV1.11B39,2013-03-07 05:00:00,
2013-03-07 00:05:00,35.6,29.4,30.09,SW,234,2.0,3.0,78,0.00,,,0.00,WeatherCatV1.11B39,2013-03-07 05:05:00,
2013-03-07 00:10:00,35.7,29.5,30.10,WSW,245,4.0,7.0,78,0.00,,,0.00,WeatherCatV1.11B39,2013-03-07 05:10:00,
2013-03-07 00:15:00,35.8,29.3,30.10,East,92,0.0,2.0,77,0.00,,,0.00,WeatherCatV1.11B39,2013-03-07 05:15:00,
2013-03-07 00:20:00,35.9,29.4,30.09,North,1,5.0,17.0,77,0.00,,,0.00,WeatherCatV1.11B39,2013-03-07 05:20:00,
2013-03-07 00:25:00,35.9,29.4,30.10,SW,231,0.0,4.0,77,0.00,,,0.00,WeatherCatV1.11B39,2013-03-07 05:25:00,
2013-03-07 00:30:00,35.9,29.4,30.10,NW,323,1.0,3.0,77,0.00,,,0.00,WeatherCatV1.11B39,2013-03-07 05:30:00,
2013-03-07 00:35:00,35.9,29.4,30.10,NNE,27,6.0,6.0,77,0.00,,,0.00,WeatherCatV1.11B39,2013-03-07 05:35:00,
2013-03-07 00:40:00,35.9,29.4,30.09,NNW,346,3.0,7.0,77,0.00,,,0.00,WeatherCatV1.11B39,2013-03-07 05:40:00,
2013-03-07 00:45:00,35.9,29.4,30.10,NE,49,1.0,5.0,77,0.00,,,0.00,WeatherCatV1.11B39,2013-03-07 05:45:00,
2013-03-07 00:50:00,35.9,29.7,30.09,ENE,59,2.0,8.0,78,0.00,,,0.00,WeatherCatV1.11B39,2013-03-07 05:50:00,
2013-03-07 00:55:00,35.9,29.4,30.09,WSW,238,1.0,5.0,77,0.00,,,0.00,WeatherCatV1.11B39,2013-03-07 05:55:00,
2013-03-07 01:00:00,35.8,29.6,30.08,SSW,197,0.0,3.0,78,0.00,,,0.00,WeatherCatV1.11B39,2013-03-07 06:00:00,
2013-03-07 01:05:00,35.9,29.4,30.09,WNW,288,0.0,4.0,77,0.00,,,0.00,WeatherCatV1.11B39,2013-03-07 06:05:00,
2013-03-07 01:10:00,35.8,29.6,30.08,SSW,198,1.0,3.0,78,0.00,,,0.00,WeatherCatV1.11B39,2013-03-07 06:10:00,
2013-03-07 01:15:00,35.7,29.5,30.08,East,98,2.0,8.0,78,0.00,,,0.00,WeatherCatV1.11B39,2013-03-07 06:15:00,
2013-03-07 01:20:00,35.8,29.6,30.07,ENE,70,7.0,7.0,78,0.00,,,0.00,WeatherCatV1.11B39,2013-03-07 06:20:00,
2013-03-07 01:25:00,35.8,29.6,30.07,SW,232,0.0,5.0,78,0.00,,,0.00,WeatherCatV1.11B39,2013-03-07 06:25:00,
2013-03-07 01:30:00,35.7,29.5,30.07,West,269,1.0,5.0,78,0.00,,,0.00,WeatherCatV1.11B39,2013-03-07 06:30:00,
2013-03-07 01:35:00,35.7,29.5,30.07,WSW,240,0.0,4.0,78,0.00,,,0.00,WeatherCatV1.11B39,2013-03-07 06:35:00,
2013-03-07 01:40:00,35.6,29.4,30.07,WNW,300,0.0,2.0,78,0.00,,,0.00,WeatherCatV1.11B39,2013-03-07 06:40:00,
2013-03-07 01:45:00,35.6,29.4,30.06,NNW,347,10.0,10.0,78,0.00,,,0.00,WeatherCatV1.11B39,2013-03-07 06:45:00,
2013-03-07 01:50:00,35.6,29.1,30.06,East,96,2.0,8.0,77,0.00,,,0.00,WeatherCatV1.11B39,2013-03-07 06:50:00,
2013-03-07 01:55:00,35.6,29.1,30.06,North,9,3.0,5.0,77,0.00,,,0.00,WeatherCatV1.11B39,2013-03-07 06:55:00,
2013-03-07 02:00:00,35.6,29.1,30.06,NW,319,0.0,4.0,77,0.00,,,0.00,WeatherCatV1.11B39,2013-03-07 07:00:00,
2013-03-07 02:05:00,35.6,29.1,30.06,WSW,248,0.0,9.0,77,0.00,,,0.00,WeatherCatV1.11B39,2013-03-07 07:05:00,
2013-03-07 02:10:00,35.6,29.1,30.06,NNE,13,4.0,4.0,77,0.00,,,0.00,WeatherCatV1.11B39,2013-03-07 07:10:00,
2013-03-07 02:15:00,35.6,29.4,30.06,West,269,0.0,5.0,78,0.00,,,0.00,WeatherCatV1.11B39,2013-03-07 07:15:00,
2013-03-07 02:20:00,35.5,29.3,30.06,NE,34,3.0,5.0,78,0.00,,,0.00,WeatherCatV1.11B39,2013-03-07 07:20:00,
2013-03-07 02:25:00,35.5,29.3,30.05,WSW,245,1.0,2.0,78,0.00,,,0.00,WeatherCatV1.11B39,2013-03-07 07:25:00,
2013-03-07 02:30:00,35.5,29.3,30.05,SSE,166,1.0,4.0,78,0.00,,,0.00,WeatherCatV1.11B39,2013-03-07 07:30:00,
2013-03-07 02:35:00,35.4,29.2,30.05,SW,219,0.0,4.0,78,0.00,,,0.00,WeatherCatV1.11B39,2013-03-07 07:35:00,
2013-03-07 02:38:00,35.4,29.2,30.05,NE,41,3.0,6.0,78,0.00,,,0.00,WeatherCatV1.11B39,2013-03-07 07:38:00,
2013-03-07 02:42:00,35.4,29.2,30.05,SSW,200,1.0,9.0,78,0.00,,,0.00,WeatherCatV1.11B39,2013-03-07 07:42:00,
2013-03-07 02:47:00,35.4,29.2,30.05,South,180,0.0,6.0,78,0.00,,,0.00,WeatherCatV1.11B39,2013-03-07 07:47:00,
2013-03-07 02:52:00,35.3,29.5,30.04,SW,226,0.0,4.0,79,0.00,,,0.00,WeatherCatV1.11B39,2013-03-07 07:52:00,
2013-03-07 02:57:00,35.3,29.8,30.05,South,188,2.0,6.0,80,0.00,,,0.00,WeatherCatV1.11B39,2013-03-07 07:57:00,
2013-03-07 03:02:00,35.1,30.2,30.04,NNW,338,3.0,6.0,82,0.00,,,0.00,WeatherCatV1.11B39,2013-03-07 08:02:00,
2013-03-07 03:07:00,34.8,30.8,30.05,SW,219,0.0,3.0,85,0.00,,,0.00,WeatherCatV1.11B39,2013-03-07 08:07:00,
2013-03-07 03:12:00,34.5,30.8,30.05,WSW,248,3.0,7.0,86,0.00,,,0.00,WeatherCatV1.11B39,2013-03-07 08:12:00,
2013-03-07 03:17:00,34.2,30.7,30.05,NW,317,1.0,7.0,87,0.00,,,0.00,WeatherCatV1.11B39,2013-03-07 08:17:00,
2013-03-07 03:22:00,34.0,30.8,30.05,WSW,249,1.0,11.0,88,0.00,,,0.00,WeatherCatV1.11B39,2013-03-07 08:22:00,
2013-03-07 03:27:00,33.9,30.7,30.05,WNW,293,1.0,7.0,88,0.00,,,0.00,WeatherCatV1.11B39,2013-03-07 08:27:00,
2013-03-07 03:32:00,33.7,30.8,30.05,West,276,1.0,5.0,89,0.00,,,0.00,WeatherCatV1.11B39,2013-03-07 08:32:00,
2013-03-07 03:37:00,33.5,30.6,30.05,SSE,155,1.0,6.0,89,0.00,,,0.00,WeatherCatV1.11B39,2013-03-07 08:37:00,
2013-03-07 03:42:00,33.4,30.5,30.05,South,188,1.0,3.0,89,0.00,,,0.00,WeatherCatV1.11B39,2013-03-07 08:42:00,
2013-03-07 03:47:00,33.3,30.7,30.05,NNE,30,0.0,3.0,90,0.00,,,0.00,WeatherCatV1.11B39,2013-03-07 08:47:00,
2013-03-07 03:52:00,33.1,30.8,30.05,NW,304,1.0,1.0,91,0.00,,,0.00,WeatherCatV1.11B39,2013-03-07 08:52:00,
2013-03-07 03:57:00,32.9,30.6,30.05,SSE,149,2.0,5.0,91,0.00,,,0.00,WeatherCatV1.11B39,2013-03-07 08:57:00,
2013-03-07 04:02:00,32.7,30.6,30.05,SW,226,1.0,4.0,92,0.00,,,0.00,WeatherCatV1.11B39,2013-03-07 09:02:00,
2013-03-07 04:07:00,32.5,30.7,30.05,NNW,333,2.0,9.0,93,0.00,,,0.00,WeatherCatV1.11B39,2013-03-07 09:07:00,
2013-03-07 04:12:00,32.4,30.6,30.05,NW,320,0.0,3.0,93,0.00,,,0.00,WeatherCatV1.11B39,2013-03-07 09:12:00,
2013-03-07 04:17:00,32.3,30.5,30.05,SW,217,1.0,2.0,93,0.00,,,0.00,WeatherCatV1.11B39,2013-03-07 09:17:00,
2013-03-07 04:22:00,32.2,30.7,30.04,WNW,283,0.0,2.0,94,0.00,,,0.00,WeatherCatV1.11B39,2013-03-07 09:22:00,
2013-03-07 04:27:00,32.1,30.6,30.04,North,359,1.0,2.0,94,0.00,,,0.00,WeatherCatV1.11B39,2013-03-07 09:27:00,
2013-03-07 04:32:00,32.0,30.5,30.04,East,94,0.0,1.0,94,0.00,,,0.00,WeatherCatV1.11B39,2013-03-07 09:32:00,
2013-03-07 04:37:00,32.0,30.5,30.03,NNW,331,1.0,1.0,94,0.00,,,0.00,WeatherCatV1.11B39,2013-03-07 09:37:00,
2013-03-07 04:42:00,31.9,30.4,30.03,NNE,22,1.0,3.0,94,0.00,,,0.00,WeatherCatV1.11B39,2013-03-07 09:42:00,
2013-03-07 04:47:00,31.8,30.3,30.03,NNW,335,0.0,4.0,94,0.00,,,0.00,WeatherCatV1.11B39,2013-03-07 09:47:00,
2013-03-07 04:52:00,31.8,30.0,30.03,North,352,2.0,4.0,93,0.00,,,0.00,WeatherCatV1.11B39,2013-03-07 09:52:00,
2013-03-07 04:57:00,31.8,30.0,30.04,North,11,2.0,4.0,93,0.00,,,0.00,WeatherCatV1.11B39,2013-03-07 09:57:00,
2013-03-07 05:02:00,31.7,29.9,30.03,SSE,160,1.0,3.0,93,0.00,,,0.00,WeatherCatV1.11B39,2013-03-07 10:02:00,
2013-03-07 05:07:00,31.7,29.9,30.04,SSW,198,0.0,2.0,93,0.00,,,0.00,WeatherCatV1.11B39,2013-03-07 10:07:00,
2013-03-07 05:12:00,31.6,29.8,30.04,North,351,3.0,4.0,93,0.00,,,0.00,WeatherCatV1.11B39,2013-03-07 10:12:00,
2013-03-07 05:17:00,31.6,29.8,30.05,WNW,287,0.0,1.0,93,0.00,,,0.00,WeatherCatV1.11B39,2013-03-07 10:17:00,
2013-03-07 05:22:00,31.5,29.7,30.05,NW,322,0.0,3.0,93,0.00,,,0.00,WeatherCatV1.11B39,2013-03-07 10:22:00,
2013-03-07 05:27:00,31.5,29.7,30.05,West,269,0.0,1.0,93,0.00,,,0.00,WeatherCatV1.11B39,2013-03-07 10:27:00,
2013-03-07 05:32:00,31.4,29.6,30.05,NW,312,1.0,2.0,93,0.00,,,0.00,WeatherCatV1.11B39,2013-03-07 10:32:00,
2013-03-07 05:37:00,31.4,29.6,30.05,North,358,0.0,0.0,93,0.00,,,0.00,WeatherCatV1.11B39,2013-03-07 10:37:00,
2013-03-07 05:42:00,31.4,29.6,30.05,NNE,15,2.0,3.0,93,0.00,,,0.00,WeatherCatV1.11B39,2013-03-07 10:42:00,
2013-03-07 05:47:00,31.4,29.6,30.05,SSE,166,0.0,7.0,93,0.00,,,0.00,WeatherCatV1.11B39,2013-03-07 10:47:00,
2013-03-07 05:52:00,31.4,29.6,30.04,ENE,67,1.0,1.0,93,0.00,,,0.00,WeatherCatV1.11B39,2013-03-07 10:52:00,
2013-03-07 05:57:00,31.4,29.6,30.05,South,191,1.0,5.0,93,0.00,,,0.00,WeatherCatV1.11B39,2013-03-07 10:57:00,
2013-03-07 06:02:00,31.5,29.4,30.05,NNW,341,0.0,5.0,92,0.00,,,0.00,WeatherCatV1.11B39,2013-03-07 11:02:00,
2013-03-07 06:07:00,31.6,29.5,30.05,SW,217,0.0,4.0,92,0.00,,,0.00,WeatherCatV1.11B39,2013-03-07 11:07:00,
2013-03-07 06:12:00,31.6,29.5,30.06,NNW,328,1.0,6.0,92,0.00,,,0.00,WeatherCatV1.11B39,2013-03-07 11:12:00,
2013-03-07 06:17:00,31.6,29.3,30.06,NNW,335,0.0,1.0,91,0.00,,,0.00,WeatherCatV1.11B39,2013-03-07 11:17:00,
2013-03-07 06:22:00,31.6,29.3,30.06,SE,142,0.0,2.0,91,0.00,,,0.00,WeatherCatV1.11B39,2013-03-07 11:22:00,
2013-03-07 06:27:00,31.6,29.3,30.06,North,1,4.0,4.0,91,0.00,,,0.00,WeatherCatV1.11B39,2013-03-07 11:27:00,
2013-03-07 06:32:00,31.5,29.2,30.06,NW,308,4.0,6.0,91,0.00,,,0.00,WeatherCatV1.11B39,2013-03-07 11:32:00,
2013-03-07 06:37:00,31.4,29.1,30.06,NNE,27,1.0,4.0,91,0.00,,,0.00,WeatherCatV1.11B39,2013-03-07 11:37:00,
2013-03-07 06:42:00,31.3,29.3,30.06,North,5,0.0,5.0,92,0.00,,,0.00,WeatherCatV1.11B39,2013-03-07 11:42:00,
2013-03-07 06:47:00,31.1,29.1,30.06,SW,218,0.0,2.0,92,0.00,,,0.00,WeatherCatV1.11B39,2013-03-07 11:47:00,
2013-03-07 06:52:00,31.0,29.2,30.05,WNW,295,1.0,2.0,93,0.00,,,0.00,WeatherCatV1.11B39,2013-03-07 11:52:00,
2013-03-07 06:57:00,30.9,29.1,30.06,SSW,194,0.0,3.0,93,0.00,,,0.00,WeatherCatV1.11B39,2013-03-07 11:57:00,
2013-03-07 07:02:00,30.8,29.0,30.06,NNW,345,0.0,1.0,93,0.00,,,0.00,WeatherCatV1.11B39,2013-03-07 12:02:00,
2013-03-07 07:07:00,30.8,29.3,30.06,NNE,29,0.0,1.0,94,0.00,,,0.00,WeatherCatV1.11B39,2013-03-07 12:07:00,
2013-03-07 07:12:00,30.7,28.9,30.06,ESE,114,0.0,2.0,93,0.00,,,0.00,WeatherCatV1.11B39,2013-03-07 12:12:00,
2013-03-07 07:17:00,30.6,29.1,30.07,NW,308,0.0,2.0,94,0.00,,,0.00,WeatherCatV1.11B39,2013-03-07 12:17:00,
2013-03-07 07:22:00,30.6,29.1,30.06,West,271,0.0,2.0,94,0.00,,,0.00,WeatherCatV1.11B39,2013-03-07 12:22:00,
2013-03-07 07:27:00,30.6,29.1,30.06,WNW,285,1.0,2.0,94,0.00,,,0.00,WeatherCatV1.11B39,2013-03-07 12:27:00,
2013-03-07 07:32:00,30.7,28.9,30.06,SW,228,2.0,2.0,93,0.00,,,0.00,WeatherCatV1.11B39,2013-03-07 12:32:00,
2013-03-07 07:37:00,30.8,29.3,30.07,NNW,331,0.0,1.0,94,0.00,,,0.00,WeatherCatV1.11B39,2013-03-07 12:37:00,
2013-03-07 07:42:00,30.7,28.9,30.06,NNE,22,2.0,3.0,93,0.00,,,0.00,WeatherCatV1.11B39,2013-03-07 12:42:00,
2013-03-07 07:47:00,30.8,29.3,30.06,SSW,200,0.0,1.0,94,0.00,,,0.00,WeatherCatV1.11B39,2013-03-07 12:47:00,
2013-03-07 07:52:00,30.8,29.0,30.07,South,176,0.0,5.0,93,0.00,,,0.00,WeatherCatV1.11B39,2013-03-07 12:52:00,
2013-03-07 07:57:00,30.9,29.4,30.06,SSE,154,0.0,4.0,94,0.00,,,0.00,WeatherCatV1.11B39,2013-03-07 12:57:00,
2013-03-07 08:02:00,31.0,29.5,30.06,WNW,287,0.0,1.0,94,0.00,,,0.00,WeatherCatV1.11B39,2013-03-07 13:02:00,
2013-03-07 08:07:00,31.0,29.5,30.06,West,273,1.0,1.0,94,0.00,,,0.00,WeatherCatV1.11B39,2013-03-07 13:07:00,
2013-03-07 08:12:00,31.1,29.6,30.06,North,357,1.0,2.0,94,0.00,,,0.00,WeatherCatV1.11B39,2013-03-07 13:12:00,
2013-03-07 08:17:00,31.1,29.6,30.06,North,4,1.0,5.0,94,0.00,,,0.00,WeatherCatV1.11B39,2013-03-07 13:17:00,
2013-03-07 08:22:00,31.2,29.7,30.06,NNE,30,0.0,2.0,94,0.00,,,0.00,WeatherCatV1.11B39,2013-03-07 13:22:00,
2013-03-07 08:27:00,31.2,29.7,30.06,NNE,27,2.0,3.0,94,0.00,,,0.00,WeatherCatV1.11B39,2013-03-07 13:27:00,
2013-03-07 08:32:00,31.3,29.8,30.06,North,351,1.0,2.0,94,0.00,,,0.00,WeatherCatV1.11B39,2013-03-07 13:32:00,
2013-03-07 08:37:00,31.4,29.9,30.06,NNW,327,1.0,1.0,94,0.00,,,0.00,WeatherCatV1.11B39,2013-03-07 13:37:00,
2013-03-07 08:42:00,31.6,30.1,30.05,NNE,19,2.0,5.0,94,0.00,,,0.00,WeatherCatV1.11B39,2013-03-07 13:42:00,
2013-03-07 08:47:00,31.8,30.3,30.06,SW,217,1.0,4.0,94,0.00,,,0.00,WeatherCatV1.11B39,2013-03-07 13:47:00,
2013-03-07 08:52:00,32.0,30.5,30.06,North,354,0.0,1.0,94,0.00,,,0.00,WeatherCatV1.11B39,2013-03-07 13:52:00,
2013-03-07 08:57:00,32.2,30.7,30.05,SE,138,1.0,1.0,94,0.00,,,0.00,WeatherCatV1.11B39,2013-03-07 13:57:00,
2013-03-07 09:02:00,32.3,30.8,30.05,South,181,0.0,1.0,94,0.00,,,0.00,WeatherCatV1.11B39,2013-03-07 14:02:00,
2013-03-07 09:07:00,32.5,31.0,30.05,NNW,327,0.0,3.0,94,0.00,,,0.00,WeatherCatV1.11B39,2013-03-07 14:07:00,
2013-03-07 09:12:00,32.7,31.2,30.05,ENE,77,0.0,0.0,94,0.00,,,0.00,WeatherCatV1.11B39,2013-03-07 14:12:00,
2013-03-07 09:17:00,32.8,31.3,30.05,NNE,25,0.0,4.0,94,0.00,,,0.00,WeatherCatV1.11B39,2013-03-07 14:17:00,
2013-03-07 09:22:00,33.0,31.5,30.06,NNW,342,5.0,8.0,94,0.00,,,0.00,WeatherCatV1.11B39,2013-03-07 14:22:00,
2013-03-07 09:27:00,33.0,31.2,30.05,ENE,63,3.0,6.0,93,0.00,,,0.00,WeatherCatV1.11B39,2013-03-07 14:27:00,
2013-03-07 09:32:00,33.1,31.3,30.05,SE,137,1.0,3.0,93,0.00,,,0.00,WeatherCatV1.11B39,2013-03-07 14:32:00,
2013-03-07 09:37:00,33.2,31.4,30.04,SSE,158,2.0,3.0,93,0.00,,,0.00,WeatherCatV1.11B39,2013-03-07 14:37:00,
2013-03-07 09:42:00,33.3,31.5,30.04,NNE,22,2.0,2.0,93,0.00,,,0.00,WeatherCatV1.11B39,2013-03-07 14:42:00,
2013-03-07 09:47:00,33.4,31.3,30.04,NW,305,2.0,3.0,92,0.00,,,0.00,WeatherCatV1.11B39,2013-03-07 14:47:00,
2013-03-07 09:52:00,33.5,31.4,30.05,NE,41,1.0,2.0,92,0.00,,,0.00,WeatherCatV1.11B39,2013-03-07 14:52:00,
2013-03-07 09:57:00,33.3,31.2,30.04,NW,326,1.0,6.0,92,0.00,,,0.00,WeatherCatV1.11B39,2013-03-07 14:57:00,
2013-03-07 10:02:00,33.3,31.2,30.04,North,11,3.0,4.0,92,0.00,,,0.00,WeatherCatV1.11B39,2013-03-07 15:02:00,
2013-03-07 10:07:00,33.4,31.3,30.04,North,350,2.0,5.0,92,0.00,,,0.00,WeatherCatV1.11B39,2013-03-07 15:07:00,
2013-03-07 10:12:00,33.4,31.3,30.04,North,11,1.0,5.0,92,0.00,,,0.00,WeatherCatV1.11B39,2013-03-07 15:12:00,
2013-03-07 10:17:00,33.5,31.4,30.05,NNW,330,1.0,5.0,92,0.00,,,0.00,WeatherCatV1.11B39,2013-03-07 15:17:00,
2013-03-07 10:22:00,33.5,31.4,30.05,NNW,335,0.0,1.0,92,0.00,,,0.00,WeatherCatV1.11B39,2013-03-07 15:22:00,
2013-03-07 10:27:00,33.5,31.2,30.05,North,351,0.0,15.0,91,0.00,,,0.00,WeatherCatV1.11B39,2013-03-07 15:27:00,
2013-03-07 10:32:00,33.4,31.3,30.05,NNW,332,4.0,6.0,92,0.00,,,0.00,WeatherCatV1.11B39,2013-03-07 15:32:00,
2013-03-07 10:37:00,33.2,31.1,30.05,North,349,1.0,7.0,92,0.00,,,0.00,WeatherCatV1.11B39,2013-03-07 15:37:00,
2013-03-07 10:42:00,33.2,31.4,30.05,SSW,193,1.0,7.0,93,0.00,,,0.00,WeatherCatV1.11B39,2013-03-07 15:42:00,
2013-03-07 10:47:00,33.2,31.4,30.05,SSE,162,0.0,5.0,93,0.00,,,0.00,WeatherCatV1.11B39,2013-03-07 15:47:00,
2013-03-07 10:52:00,33.3,31.5,30.05,SE,144,4.0,5.0,93,0.00,,,0.00,WeatherCatV1.11B39,2013-03-07 15:52:00,
2013-03-07 10:57:00,33.5,31.7,30.05,SSE,150,1.0,2.0,93,0.00,,,0.00,WeatherCatV1.11B39,2013-03-07 15:57:00,
2013-03-07 11:02:00,33.6,31.8,30.05,ENE,70,1.0,7.0,93,0.00,,,0.00,WeatherCatV1.11B39,2013-03-07 16:02:00,
2013-03-07 11:07:00,33.6,31.8,30.05,SW,219,2.0,3.0,93,0.00,,,0.00,WeatherCatV1.11B39,2013-03-07 16:07:00,
2013-03-07 11:12:00,33.7,31.6,30.05,SW,226,0.0,2.0,92,0.00,,,0.00,WeatherCatV1.11B39,2013-03-07 16:12:00,
2013-03-07 11:17:00,33.9,31.8,30.05,SSW,205,0.0,1.0,92,0.00,,,0.00,WeatherCatV1.11B39,2013-03-07 16:17:00,
2013-03-07 11:22:00,33.9,31.8,30.05,NNE,13,0.0,2.0,92,0.00,,,0.00,WeatherCatV1.11B39,2013-03-07 16:22:00,
2013-03-07 11:27:00,33.9,31.8,30.05,WNW,302,2.0,3.0,92,0.00,,,0.00,WeatherCatV1.11B39,2013-03-07 16:27:00,
2013-03-07 11:32:00,33.7,31.6,30.05,SSW,205,1.0,5.0,92,0.00,,,0.00,WeatherCatV1.11B39,2013-03-07 16:32:00,
2013-03-07 11:37:00,33.7,31.6,30.06,SW,219,0.0,4.0,92,0.00,,,0.00,WeatherCatV1.11B39,2013-03-07 16:37:00,
2013-03-07 11:42:00,33.7,31.6,30.06,North,8,2.0,3.0,92,0.00,,,0.00,WeatherCatV1.11B39,2013-03-07 16:42:00,
2013-03-07 11:47:00,33.7,31.6,30.06,NNW,328,2.0,2.0,92,0.00,,,0.00,WeatherCatV1.11B39,2013-03-07 16:47:00,
2013-03-07 11:52:00,33.6,31.5,30.05,SSW,202,0.0,6.0,92,0.00,,,0.00,WeatherCatV1.11B39,2013-03-07 16:52:00,
2013-03-07 11:57:00,33.7,31.6,30.05,North,353,3.0,8.0,92,0.00,,,0.00,WeatherCatV1.11B39,2013-03-07 16:57:00,
2013-03-07 12:02:00,33.7,31.6,30.05,West,278,0.0,3.0,92,0.00,,,0.00,WeatherCatV1.11B39,2013-03-07 17:02:00,
2013-03-07 12:07:00,33.9,31.8,30.05,NNW,347,2.0,3.0,92,0.00,,,0.00,WeatherCatV1.11B39,2013-03-07 17:07:00,
2013-03-07 12:12:00,34.0,31.9,30.05,NW,310,0.0,3.0,92,0.00,,,0.00,WeatherCatV1.11B39,2013-03-07 17:12:00,
2013-03-07 12:17:00,34.3,32.2,30.05,NW,320,1.0,4.0,92,0.00,,,0.00,WeatherCatV1.11B39,2013-03-07 17:17:00,
2013-03-07 12:22:00,34.5,32.4,30.05,North,356,0.0,2.0,92,0.00,,,0.00,WeatherCatV1.11B39,2013-03-07 17:22:00,
2013-03-07 12:27:00,34.5,32.1,30.05,NNW,341,2.0,5.0,91,0.00,,,0.00,WeatherCatV1.11B39,2013-03-07 17:27:00,
2013-03-07 12:32:00,34.3,32.0,30.05,SW,225,1.0,7.0,91,0.00,,,0.00,WeatherCatV1.11B39,2013-03-07 17:32:00,
2013-03-07 12:37:00,34.3,32.0,30.05,NNE,17,3.0,9.0,91,0.00,,,0.00,WeatherCatV1.11B39,2013-03-07 17:37:00,
2013-03-07 12:42:00,34.2,31.9,30.05,WSW,253,3.0,7.0,91,0.00,,,0.00,WeatherCatV1.11B39,2013-03-07 17:42:00,
2013-03-07 12:47:00,34.1,31.8,30.05,ENE,65,1.0,6.0,91,0.00,,,0.00,WeatherCatV1.11B39,2013-03-07 17:47:00,
2013-03-07 12:52:00,34.0,31.7,30.05,NNW,341,4.0,7.0,91,0.00,,,0.00,WeatherCatV1.11B39,2013-03-07 17:52:00,
2013-03-07 12:57:00,33.9,31.6,30.05,North,356,1.0,9.0,91,0.00,,,0.00,WeatherCatV1.11B39,2013-03-07 17:57:00,
2013-03-07 13:02:00,33.9,31.8,30.05,NW,314,0.0,3.0,92,0.00,,,0.00,WeatherCatV1.11B39,2013-03-07 18:02:00,
2013-03-07 13:07:00,34.1,32.0,30.05,NNW,339,5.0,5.0,92,0.00,,,0.00,WeatherCatV1.11B39,2013-03-07 18:07:00,
2013-03-07 13:12:00,34.0,31.7,30.05,NNE,32,0.0,4.0,91,0.00,,,0.00,WeatherCatV1.11B39,2013-03-07 18:12:00,
2013-03-07 13:17:00,33.9,31.6,30.05,WNW,290,1.0,7.0,91,0.00,,,0.00,WeatherCatV1.11B39,2013-03-07 18:17:00,
2013-03-07 13:22:00,33.8,31.7,30.05,SE,133,1.0,3.0,92,0.00,,,0.00,WeatherCatV1.11B39,2013-03-07 18:22:00,
2013-03-07 13:27:00,33.8,31.7,30.05,NNE,18,0.0,7.0,92,0.00,,,0.01,WeatherCatV1.11B39,2013-03-07 18:27:00,
2013-03-07 13:32:00,33.7,31.6,30.05,SSW,194,0.0,3.0,92,0.12,,,0.02,WeatherCatV1.11B39,2013-03-07 18:32:00,
2013-03-07 13:37:00,33.7,31.6,30.05,NNW,330,3.0,6.0,92,0.11,,,0.03,WeatherCatV1.11B39,2013-03-07 18:37:00,
2013-03-07 13:42:00,33.7,31.6,30.05,NNW,330,0.0,5.0,92,0.11,,,0.03,WeatherCatV1.11B39,2013-03-07 18:42:00,
2013-03-07 13:47:00,33.7,31.6,30.05,South,188,0.0,4.0,92,0.10,,,0.04,WeatherCatV1.11B39,2013-03-07 18:47:00,
2013-03-07 13:52:00,33.7,31.6,30.05,NNW,330,2.0,6.0,92,0.08,,,0.05,WeatherCatV1.11B39,2013-03-07 18:52:00,
2013-03-07 13:57:00,33.8,32.0,30.05,North,358,0.0,7.0,93,0.08,,,0.05,WeatherCatV1.11B39,2013-03-07 18:57:00,
2013-03-07 14:02:00,33.8,31.7,30.05,West,271,2.0,3.0,92,0.08,,,0.06,WeatherCatV1.11B39,2013-03-07 19:02:00,
2013-03-07 14:07:00,33.7,31.6,30.05,South,183,3.0,5.0,92,0.08,,,0.07,WeatherCatV1.11B39,2013-03-07 19:07:00,
2013-03-07 14:12:00,33.5,31.4,30.05,SE,145,0.0,3.0,92,0.08,,,0.07,WeatherCatV1.11B39,2013-03-07 19:12:00,
2013-03-07 14:17:00,33.5,31.4,30.05,WNW,294,0.0,3.0,92,0.07,,,0.08,WeatherCatV1.11B39,2013-03-07 19:17:00,
2013-03-07 14:22:00,33.4,31.3,30.05,SSW,206,0.0,4.0,92,0.07,,,0.08,WeatherCatV1.11B39,2013-03-07 19:22:00,
2013-03-07 14:27:00,33.3,31.2,30.05,NW,304,0.0,5.0,92,0.06,,,0.09,WeatherCatV1.11B39,2013-03-07 19:27:00,
2013-03-07 14:32:00,33.2,31.4,30.05,NW,326,0.0,3.0,93,0.06,,,0.09,WeatherCatV1.11B39,2013-03-07 19:32:00,
2013-03-07 14:37:00,33.2,31.4,30.05,WSW,250,0.0,1.0,93,0.05,,,0.09,WeatherCatV1.11B39,2013-03-07 19:37:00,
2013-03-07 14:42:00,33.1,31.3,30.05,North,6,1.0,3.0,93,0.05,,,0.10,WeatherCatV1.11B39,2013-03-07 19:42:00,
2013-03-07 14:47:00,32.9,31.1,30.04,SW,215,1.0,5.0,93,0.05,,,0.10,WeatherCatV1.11B39,2013-03-07 19:47:00,
2013-03-07 14:52:00,32.9,31.1,30.05,NNE,22,4.0,5.0,93,0.04,,,0.10,WeatherCatV1.11B39,2013-03-07 19:52:00,
2013-03-07 14:57:00,32.9,31.1,30.05,SSE,165,0.0,3.0,93,0.04,,,0.11,WeatherCatV1.11B39,2013-03-07 19:57:00,
2013-03-07 15:02:00,32.8,31.0,30.05,WSW,257,2.0,7.0,93,0.04,,,0.11,WeatherCatV1.11B39,2013-03-07 20:02:00,
2013-03-07 15:07:00,32.7,30.9,30.05,WNW,290,1.0,4.0,93,0.04,,,0.11,WeatherCatV1.11B39,2013-03-07 20:07:00,
2013-03-07 15:12:00,32.6,30.8,30.05,North,7,0.0,5.0,93,0.04,,,0.12,WeatherCatV1.11B39,2013-03-07 20:12:00,
2013-03-07 15:17:00,32.5,30.7,30.05,West,269,1.0,7.0,93,0.04,,,0.12,WeatherCatV1.11B39,2013-03-07 20:17:00,
2013-03-07 15:22:00,32.5,31.0,30.05,SW,214,2.0,8.0,94,0.04,,,0.12,WeatherCatV1.11B39,2013-03-07 20:22:00,
2013-03-07 15:27:00,32.5,31.0,30.05,NNE,20,1.0,5.0,94,0.04,,,0.12,WeatherCatV1.11B39,2013-03-07 20:27:00,
2013-03-07 15:32:00,32.5,31.0,30.05,WSW,238,0.0,3.0,94,0.00,,,0.12,WeatherCatV1.11B39,2013-03-07 20:32:00,
2013-03-07 15:37:00,32.4,30.9,30.05,SW,217,0.0,4.0,94,0.00,,,0.13,WeatherCatV1.11B39,2013-03-07 20:37:00,
2013-03-07 15:42:00,32.4,30.6,30.05,North,8,5.0,5.0,93,0.00,,,0.13,WeatherCatV1.11B39,2013-03-07 20:42:00,
2013-03-07 15:47:00,32.4,30.9,30.05,NW,312,1.0,2.0,94,0.00,,,0.13,WeatherCatV1.11B39,2013-03-07 20:47:00,
2013-03-07 15:52:00,32.4,30.9,30.05,NNW,347,0.0,2.0,94,0.00,,,0.13,WeatherCatV1.11B39,2013-03-07 20:52:00,
2013-03-07 15:57:00,32.3,30.8,30.05,WSW,242,0.0,2.0,94,0.00,,,0.13,WeatherCatV1.11B39,2013-03-07 20:57:00,
2013-03-07 16:02:00,32.3,30.8,30.05,WSW,255,0.0,2.0,94,0.00,,,0.13,WeatherCatV1.11B39,2013-03-07 21:02:00,
2013-03-07 16:07:00,32.2,30.7,30.05,SW,233,0.0,2.0,94,0.00,,,0.14,WeatherCatV1.11B39,2013-03-07 21:07:00,
2013-03-07 16:12:00,32.1,30.6,30.05,North,356,2.0,4.0,94,0.00,,,0.14,WeatherCatV1.11B39,2013-03-07 21:12:00,
2013-03-07 16:17:00,32.1,30.6,30.05,NW,326,1.0,2.0,94,0.00,,,0.14,WeatherCatV1.11B39,2013-03-07 21:17:00,
2013-03-07 16:22:00,32.1,30.6,30.05,WNW,290,1.0,2.0,94,0.00,,,0.14,WeatherCatV1.11B39,2013-03-07 21:22:00,
2013-03-07 16:27:00,32.1,30.6,30.05,NE,36,1.0,2.0,94,0.00,,,0.14,WeatherCatV1.11B39,2013-03-07 21:27:00,
2013-03-07 16:32:00,32.1,30.6,30.05,NNW,330,0.0,5.0,94,0.00,,,0.14,WeatherCatV1.11B39,2013-03-07 21:32:00,
2013-03-07 16:37:00,32.1,30.6,30.05,NE,36,1.0,3.0,94,0.00,,,0.14,WeatherCatV1.11B39,2013-03-07 21:37:00,
2013-03-07 16:42:00,32.0,30.5,30.06,WNW,291,0.0,4.0,94,0.00,,,0.14,WeatherCatV1.11B39,2013-03-07 21:42:00,
2013-03-07 16:47:00,31.9,30.4,30.05,NE,49,2.0,7.0,94,0.00,,,0.15,WeatherCatV1.11B39,2013-03-07 21:47:00,
2013-03-07 16:52:00,31.8,30.0,30.06,SSW,198,1.0,3.0,93,0.00,,,0.15,WeatherCatV1.11B39,2013-03-07 21:52:00,
2013-03-07 16:57:00,31.9,30.1,30.05,SW,225,0.0,1.0,93,0.00,,,0.15,WeatherCatV1.11B39,2013-03-07 21:57:00,
2013-03-07 17:02:00,31.8,30.0,30.05,WNW,297,1.0,1.0,93,0.00,,,0.15,WeatherCatV1.11B39,2013-03-07 22:02:00,
2013-03-07 17:07:00,31.8,29.7,30.06,WNW,300,4.0,7.0,92,0.00,,,0.15,WeatherCatV1.11B39,2013-03-07 22:07:00,
2013-03-07 17:12:00,31.7,29.6,30.06,NNE,21,0.0,4.0,92,0.00,,,0.15,WeatherCatV1.11B39,2013-03-07 22:12:00,
2013-03-07 17:17:00,31.7,29.6,30.06,SE,124,0.0,5.0,92,0.00,,,0.15,WeatherCatV1.11B39,2013-03-07 22:17:00,
2013-03-07 17:22:00,31.7,29.6,30.06,NNW,332,3.0,8.0,92,0.00,,,0.15,WeatherCatV1.11B39,2013-03-07 22:22:00,
2013-03-07 17:27:00,31.6,29.8,30.06,ESE,109,2.0,6.0,93,0.00,,,0.15,WeatherCatV1.11B39,2013-03-07 22:27:00,
2013-03-07 17:32:00,31.6,29.8,30.06,SW,218,0.0,3.0,93,0.00,,,0.15,WeatherCatV1.11B39,2013-03-07 22:32:00,
2013-03-07 17:37:00,31.6,29.8,30.06,NW,316,0.0,3.0,93,0.00,,,0.15,WeatherCatV1.11B39,2013-03-07 22:37:00,
2013-03-07 17:42:00,31.5,29.7,30.06,North,354,1.0,1.0,93,0.00,,,0.15,WeatherCatV1.11B39,2013-03-07 22:42:00,
2013-03-07 17:47:00,31.4,29.6,30.06,WNW,293,0.0,5.0,93,0.00,,,0.15,WeatherCatV1.11B39,2013-03-07 22:47:00,
2013-03-07 17:52:00,31.4,29.6,30.06,NNW,335,0.0,2.0,93,0.00,,,0.15,WeatherCatV1.11B39,2013-03-07 22:52:00,
2013-03-07 17:57:00,31.3,29.5,30.06,SSW,193,1.0,4.0,93,0.00,,,0.15,WeatherCatV1.11B39,2013-03-07 22:57:00,
2013-03-07 18:02:00,31.3,29.5,30.06,SSE,158,0.0,1.0,93,0.00,,,0.16,WeatherCatV1.11B39,2013-03-07 23:02:00,
2013-03-07 18:07:00,31.2,29.4,30.06,North,11,2.0,6.0,93,0.00,,,0.16,WeatherCatV1.11B39,2013-03-07 23:07:00,
2013-03-07 18:12:00,31.1,29.3,30.06,NNE,12,1.0,3.0,93,0.00,,,0.16,WeatherCatV1.11B39,2013-03-07 23:12:00,
2013-03-07 18:17:00,31.1,29.3,30.06,North,6,2.0,3.0,93,0.00,,,0.16,WeatherCatV1.11B39,2013-03-07 23:17:00,
2013-03-07 18:22:00,31.0,29.2,30.06,NNW,327,0.0,5.0,93,0.00,,,0.16,WeatherCatV1.11B39,2013-03-07 23:22:00,
2013-03-07 18:27:00,31.0,29.2,30.06,NW,319,1.0,3.0,93,0.00,,,0.16,WeatherCatV1.11B39,2013-03-07 23:27:00,
2013-03-07 18:32:00,30.9,29.1,30.06,NNE,20,1.0,2.0,93,0.00,,,0.16,WeatherCatV1.11B39,2013-03-07 23:32:00,
2013-03-07 18:37:00,30.9,29.4,30.06,WNW,300,7.0,11.0,94,0.00,,,0.16,WeatherCatV1.11B39,2013-03-07 23:37:00,
2013-03-07 18:42:00,30.9,29.4,30.06,North,350,0.0,3.0,94,0.00,,,0.16,WeatherCatV1.11B39,2013-03-07 23:42:00,
2013-03-07 18:47:00,30.8,29.3,30.05,NNE,15,1.0,5.0,94,0.00,,,0.16,WeatherCatV1.11B39,2013-03-07 23:47:00,
2013-03-07 18:52:00,30.8,29.3,30.06,NNW,340,0.0,3.0,94,0.00,,,0.16,WeatherCatV1.11B39,2013-03-07 23:52:00,
2013-03-07 18:57:00,30.8,29.3,30.05,NNW,346,1.0,3.0,94,0.00,,,0.16,WeatherCatV1.11B39,2013-03-07 23:57:00,
2013-03-07 19:02:00,30.9,29.1,30.05,WSW,255,0.0,2.0,93,0.00,,,0.16,WeatherCatV1.11B39,2013-03-08 00:02:00,
2013-03-07 19:07:00,30.9,29.1,30.05,SW,225,0.0,4.0,93,0.00,,,0.16,WeatherCatV1.11B39,2013-03-08 00:07:00,
2013-03-07 19:12:00,30.9,29.1,30.05,North,11,0.0,2.0,93,0.00,,,0.16,WeatherCatV1.11B39,2013-03-08 00:12:00,
2013-03-07 19:17:00,30.9,29.1,30.05,South,181,0.0,2.0,93,0.00,,,0.16,WeatherCatV1.11B39,2013-03-08 00:17:00,
2013-03-07 19:22:00,30.9,29.1,30.05,NW,308,0.0,5.0,93,0.00,,,0.16,WeatherCatV1.11B39,2013-03-08 00:22:00,
2013-03-07 19:27:00,30.9,28.9,30.05,NNW,329,0.0,6.0,92,0.00,,,0.16,WeatherCatV1.11B39,2013-03-08 00:27:00,
2013-03-07 19:32:00,30.9,28.9,30.05,NNW,328,0.0,13.0,92,0.00,,,0.16,WeatherCatV1.11B39,2013-03-08 00:32:00,
2013-03-07 19:37:00,31.0,29.0,30.05,SSE,155,0.0,2.0,92,0.00,,,0.16,WeatherCatV1.11B39,2013-03-08 00:37:00,
2013-03-07 19:42:00,31.0,29.0,30.05,North,0,1.0,1.0,92,0.00,,,0.16,WeatherCatV1.11B39,2013-03-08 00:42:00,
2013-03-07 19:47:00,31.0,29.0,30.05,WNW,295,0.0,1.0,92,0.00,,,0.16,WeatherCatV1.11B39,2013-03-08 00:47:00,
2013-03-07 19:52:00,31.0,29.0,30.05,WSW,239,0.0,4.0,92,0.00,,,0.16,WeatherCatV1.11B39,2013-03-08 00:52:00,
2013-03-07 19:57:00,31.0,29.0,30.05,NNE,23,1.0,5.0,92,0.00,,,0.16,WeatherCatV1.11B39,2013-03-08 00:57:00,
2013-03-07 20:02:00,31.0,29.0,30.05,SE,143,1.0,4.0,92,0.00,,,0.16,WeatherCatV1.11B39,2013-03-08 01:02:00,
2013-03-07 20:07:00,31.0,29.0,30.05,NNW,345,3.0,7.0,92,0.00,,,0.16,WeatherCatV1.11B39,2013-03-08 01:07:00,
2013-03-07 20:12:00,31.0,29.0,30.05,North,351,0.0,2.0,92,0.00,,,0.16,WeatherCatV1.11B39,2013-03-08 01:12:00,
2013-03-07 20:17:00,31.0,29.0,30.05,NNE,18,3.0,3.0,92,0.00,,,0.16,WeatherCatV1.11B39,2013-03-08 01:17:00,
2013-03-07 20:22:00,31.0,29.0,30.05,SSE,165,0.0,2.0,92,0.00,,,0.16,WeatherCatV1.11B39,2013-03-08 01:22:00,
2013-03-07 20:27:00,31.0,29.0,30.05,West,265,0.0,1.0,92,0.00,,,0.16,WeatherCatV1.11B39,2013-03-08 01:27:00,
2013-03-07 20:32:00,31.0,29.0,30.04,NNW,331,1.0,6.0,92,0.00,,,0.16,WeatherCatV1.11B39,2013-03-08 01:32:00,
2013-03-07 20:37:00,31.0,29.0,30.04,NW,306,1.0,4.0,92,0.00,,,0.16,WeatherCatV1.11B39,2013-03-08 01:37:00,
2013-03-07 20:42:00,31.1,29.1,30.04,NE,51,1.0,1.0,92,0.00,,,0.16,WeatherCatV1.11B39,2013-03-08 01:42:00,
2013-03-07 20:47:00,31.1,29.1,30.04,North,357,3.0,3.0,92,0.00,,,0.16,WeatherCatV1.11B39,2013-03-08 01:47:00,
2013-03-07 20:52:00,31.1,28.8,30.04,NNE,20,0.0,0.0,91,0.00,,,0.16,WeatherCatV1.11B39,2013-03-08 01:52:00,
2013-03-07 20:57:00,31.2,28.9,30.04,NNW,347,0.0,0.0,91,0.00,,,0.16,WeatherCatV1.11B39,2013-03-08 01:57:00,
2013-03-07 21:02:00,31.2,28.9,30.04,SSE,156,3.0,3.0,91,0.00,,,0.16,WeatherCatV1.11B39,2013-03-08 02:02:00,
2013-03-07 21:07:00,31.1,29.1,30.04,SW,236,0.0,1.0,92,0.00,,,0.16,WeatherCatV1.11B39,2013-03-08 02:07:00,
2013-03-07 21:12:00,31.1,29.1,30.03,NNE,26,3.0,5.0,92,0.00,,,0.16,WeatherCatV1.11B39,2013-03-08 02:12:00,
2013-03-07 21:17:00,31.1,29.1,30.03,NNE,19,4.0,4.0,92,0.00,,,0.16,WeatherCatV1.11B39,2013-03-08 02:17:00,
2013-03-07 21:22:00,31.0,29.0,30.03,NNE,27,2.0,4.0,92,0.00,,,0.16,WeatherCatV1.11B39,2013-03-08 02:22:00,
2013-03-07 21:27:00,30.9,29.1,30.03,WSW,254,0.0,6.0,93,0.00,,,0.16,WeatherCatV1.11B39,2013-03-08 02:27:00,
2013-03-07 21:32:00,30.9,29.1,30.03,NW,306,1.0,9.0,93,0.00,,,0.16,WeatherCatV1.11B39,2013-03-08 02:32:00,
2013-03-07 21:37:00,30.8,29.3,30.03,NNW,341,1.0,4.0,94,0.00,,,0.16,WeatherCatV1.11B39,2013-03-08 02:37:00,
2013-03-07 21:42:00,30.8,29.3,30.03,NNE,18,1.0,2.0,94,0.00,,,0.16,WeatherCatV1.11B39,2013-03-08 02:42:00,
2013-03-07 21:47:00,30.8,29.3,30.03,North,11,2.0,4.0,94,0.00,,,0.16,WeatherCatV1.11B39,2013-03-08 02:47:00,
2013-03-07 21:52:00,30.7,29.2,30.03,North,6,2.0,4.0,94,0.00,,,0.16,WeatherCatV1.11B39,2013-03-08 02:52:00,
2013-03-07 21:57:00,30.7,29.2,30.03,NNE,17,3.0,5.0,94,0.00,,,0.16,WeatherCatV1.11B39,2013-03-08 02:57:00,
2013-03-07 22:02:00,30.7,29.2,30.03,North,349,2.0,3.0,94,0.00,,,0.16,WeatherCatV1.11B39,2013-03-08 03:02:00,
2013-03-07 22:07:00,30.7,29.2,30.03,NNW,339,2.0,5.0,94,0.00,,,0.16,WeatherCatV1.11B39,2013-03-08 03:07:00,
2013-03-07 22:12:00,30.7,29.2,30.03,South,191,0.0,5.0,94,0.00,,,0.16,WeatherCatV1.11B39,2013-03-08 03:12:00,
2013-03-07 22:17:00,30.7,29.2,30.02,NNW,335,0.0,1.0,94,0.00,,,0.16,WeatherCatV1.11B39,2013-03-08 03:17:00,
2013-03-07 22:22:00,30.7,29.4,30.02,NNW,345,0.0,4.0,95,0.00,,,0.16,WeatherCatV1.11B39,2013-03-08 03:22:00,
2013-03-07 22:27:00,30.7,29.4,30.02,SSW,194,0.0,1.0,95,0.00,,,0.16,WeatherCatV1.11B39,2013-03-08 03:27:00,
2013-03-07 22:32:00,30.7,29.4,30.02,NNW,346,2.0,2.0,95,0.00,,,0.16,WeatherCatV1.11B39,2013-03-08 03:32:00,
2013-03-07 22:37:00,30.7,29.4,30.02,NNW,333,1.0,4.0,95,0.00,,,0.16,WeatherCatV1.11B39,2013-03-08 03:37:00,
2013-03-07 22:42:00,30.7,29.4,30.02,South,183,0.0,0.0,95,0.00,,,0.16,WeatherCatV1.11B39,2013-03-08 03:42:00,
2013-03-07 22:47:00,30.7,29.4,30.02,South,190,0.0,1.0,95,0.00,,,0.16,WeatherCatV1.11B39,2013-03-08 03:47:00,
2013-03-07 22:52:00,30.7,29.4,30.02,SSW,208,0.0,3.0,95,0.00,,,0.16,WeatherCatV1.11B39,2013-03-08 03:52:00,
2013-03-07 22:57:00,30.7,29.4,30.02,North,359,0.0,3.0,95,0.00,,,0.16,WeatherCatV1.11B39,2013-03-08 03:57:00,
2013-03-07 23:02:00,30.7,29.4,30.02,NNW,333,0.0,1.0,95,0.00,,,0.16,WeatherCatV1.11B39,2013-03-08 04:02:00,
2013-03-07 23:07:00,30.7,29.4,30.02,NNE,19,2.0,3.0,95,0.00,,,0.16,WeatherCatV1.11B39,2013-03-08 04:07:00,
2013-03-07 23:12:00,30.7,29.4,30.02,SSE,162,0.0,1.0,95,0.00,,,0.16,WeatherCatV1.11B39,2013-03-08 04:12:00,
2013-03-07 23:17:00,30.7,29.4,30.02,NNW,340,1.0,2.0,95,0.00,,,0.16,WeatherCatV1.11B39,2013-03-08 04:17:00,
2013-03-07 23:22:00,30.7,29.4,30.02,North,5,0.0,3.0,95,0.00,,,0.16,WeatherCatV1.11B39,2013-03-08 04:22:00,
2013-03-07 23:27:00,30.7,29.4,30.02,North,6,0.0,1.0,95,0.00,,,0.16,WeatherCatV1.11B39,2013-03-08 04:27:00,
2013-03-07 23:32:00,30.7,29.4,30.01,North,349,3.0,3.0,95,0.00,,,0.16,WeatherCatV1.11B39,2013-03-08 04:32:00,
2013-03-07 23:37:00,30.6,29.3,30.01,North,11,0.0,1.0,95,0.00,,,0.16,WeatherCatV1.11B39,2013-03-08 04:37:00,
2013-03-07 23:42:00,30.6,29.3,30.01,North,11,0.0,1.0,95,0.00,,,0.16,WeatherCatV1.11B39,2013-03-08 04:42:00,
2013-03-07 23:47:00,30.6,29.3,30.01,NW,326,0.0,2.0,95,0.00,,,0.16,WeatherCatV1.11B39,2013-03-08 04:47:00,
2013-03-07 23:52:00,30.6,29.1,30.01,NW,304,0.0,10.0,94,0.00,,,0.17,WeatherCatV1.11B39,2013-03-08 04:52:00,
2013-03-07 23:57:00,30.6,29.1,30.01,SSW,212,0.0,1.0,94,0.00,,,0.17,WeatherCatV1.11B39,2013-03-08 04:57:00,